Time;durP1;ratioP1;P1;durP2;ratioP2;P2;SDS_P1;SDS_P2;PMS_P1;PMS_P2;Temp;Humidity;BMP_temperature;BMP_pressure;BME280_temperature;BME280_humidity;BME280_pressure;Samples;Min_cycle;Max_cycle;Signal;HPM_P1;HPM_P2
2022/12/23 00:01:55;;;;;;;1.73;1.00;;;12.50;69.20;;;8.33;98.09;94972.47;4974865;28;20112;-59
2022/12/23 00:04:21;;;;;;;2.90;1.15;;;12.50;69.30;;;8.33;97.84;94965.28;4940154;28;20026;-55
2022/12/23 00:06:53;;;;;;;2.08;0.95;;;12.50;69.40;;;8.34;97.71;94966.09;4957395;28;20024;-55
2022/12/23 00:09:19;;;;;;;1.65;0.80;;;12.50;69.50;;;8.37;98.06;94976.19;4953646;28;20034;-57
2022/12/23 00:17:19;;;;;;;3.35;1.23;;;12.50;69.40;;;8.35;98.86;94951.78;4973198;28;20064;-59
2022/12/23 00:19:45;;;;;;;2.45;0.95;;;12.60;69.60;;;8.35;99.74;94954.44;4953352;28;20030;-55
2022/12/23 00:22:11;;;;;;;1.95;0.73;;;12.50;69.60;;;8.36;99.30;94958.66;4939843;28;20117;-58
2022/12/23 00:24:39;;;;;;;2.88;0.68;;;12.50;69.70;;;8.36;98.98;94948.03;4955669;28;20034;-56
2022/12/23 00:27:08;;;;;;;2.03;0.82;;;12.60;69.80;;;8.37;99.85;94946.19;4974311;28;20018;-56
2022/12/23 00:29:37;;;;;;;2.97;1.10;;;12.50;70.10;;;8.41;100.00;94944.63;4939647;28;20050;-53
2022/12/23 00:32:03;;;;;;;2.25;1.00;;;12.50;70.10;;;8.39;100.00;94944.88;4957265;28;20046;-58
2022/12/23 00:34:31;;;;;;;1.25;0.70;;;12.50;70.20;;;8.37;100.00;94962.94;4972790;28;20036;-55
2022/12/23 00:37:00;;;;;;;2.35;0.82;;;12.50;70.40;;;8.40;100.00;94953.66;4956627;28;20029;-54
2022/12/23 00:45:17;;;;;;;1.88;0.88;;;12.50;71.40;;;8.43;100.00;94938.00;4974393;28;20077;-53
2022/12/23 00:50:41;;;;;;;0.82;0.70;;;12.60;70.90;;;8.44;100.00;94952.88;4953124;28;20089;-54
2022/12/23 00:53:09;;;;;;;1.25;0.77;;;12.60;70.90;;;8.41;100.00;94942.00;4971587;28;20401;-56
2022/12/23 00:55:35;;;;;;;1.65;0.80;;;12.60;71.00;;;8.41;100.00;94958.69;4974204;28;20030;-53
2022/12/23 00:58:04;;;;;;;1.23;0.80;;;12.60;71.80;;;8.44;100.00;94957.38;4940572;28;20053;-55
2022/12/23 01:06:05;;;;;;;2.47;0.70;;;12.60;71.20;;;8.55;100.00;94961.59;4957134;28;20103;-51
2022/12/23 01:08:31;;;;;;;1.55;0.75;;;12.70;71.30;;;8.58;100.00;94953.13;4953230;28;20038;-56
2022/12/23 01:11:06;;;;;;;1.10;0.85;;;12.70;71.20;;;8.64;100.00;94960.00;4971449;28;20480;-52
2022/12/23 01:13:33;;;;;;;1.33;0.85;;;12.80;71.30;;;8.59;100.00;94957.38;4973637;28;20129;-54
2022/12/23 01:16:07;;;;;;;3.00;0.80;;;12.80;71.20;;;8.57;100.00;94962.16;4973440;28;20041;-57
2022/12/23 01:18:35;;;;;;;1.25;0.75;;;12.80;71.20;;;8.57;100.00;94967.47;4955744;28;20046;-55
2022/12/23 01:21:08;;;;;;;0.98;0.60;;;12.80;71.30;;;8.54;100.00;94975.94;4955328;28;20042;-55
2022/12/23 01:23:36;;;;;;;2.47;0.80;;;12.80;71.40;;;8.52;100.00;94964.78;4935938;28;20033;-51
2022/12/23 01:26:08;;;;;;;2.63;0.80;;;12.80;71.40;;;8.48;100.00;94971.72;4947167;28;20054;-54
2022/12/23 01:28:35;;;;;;;1.60;0.88;;;12.70;71.50;;;8.45;100.00;94970.38;4924507;28;20034;-56
2022/12/23 01:31:04;;;;;;;1.13;0.80;;;12.70;71.60;;;8.43;100.00;94969.03;4955580;28;20026;-57
2022/12/23 01:33:36;;;;;;;1.73;0.73;;;12.70;71.70;;;8.45;100.00;94973.03;4956164;28;20037;-54
2022/12/23 01:36:08;;;;;;;5.03;1.30;;;12.70;72.00;;;8.48;100.00;94987.63;4954593;28;20105;-57
2022/12/23 01:38:37;;;;;;;2.85;1.00;;;12.70;72.10;;;8.49;100.00;94997.19;4972967;28;20026;-57
2022/12/23 01:41:04;;;;;;;0.80;0.80;;;12.70;72.10;;;8.53;100.00;94988.44;4971178;28;20033;-57
2022/12/23 01:43:51;;;;;;;1.67;0.65;;;12.70;72.20;;;8.54;100.00;94997.19;4952796;28;20113;-57
2022/12/23 01:46:17;;;;;;;0.70;0.60;;;12.80;72.50;;;8.60;100.00;94993.47;4968377;28;20026;-57
2022/12/23 01:49:05;;;;;;;3.30;0.70;;;12.80;72.40;;;8.62;100.00;95006.47;4950990;28;20030;-57
2022/12/23 01:51:32;;;;;;;2.88;0.77;;;12.80;72.50;;;8.63;100.00;95002.78;4955116;28;20373;-54
2022/12/23 01:54:01;;;;;;;1.13;0.60;;;12.80;72.50;;;8.66;100.00;95002.25;4935395;28;20382;-52
2022/12/23 01:56:36;;;;;;;1.42;0.60;;;12.80;72.50;;;8.67;100.00;94990.53;4943006;28;20389;-55
2022/12/23 02:03:41;;;;;;;1.77;0.50;;;12.90;72.60;;;8.74;100.00;95004.34;4948095;28;20034;-57
2022/12/23 02:04:51;;;;;;;1.10;0.57;;;12.90;72.50;;;8.84;100.00;95009.66;4922251;29;20557;-56
2022/12/23 02:10:09;;;;;;;1.25;0.50;;;13.00;72.60;;;8.89;100.00;95012.31;4927040;29;20114;-57
2022/12/23 02:13:06;;;;;;;0.93;0.63;;;13.00;72.50;;;8.89;100.00;95008.84;4926282;29;20494;-57
2022/12/23 02:18:59;;;;;;;0.57;0.57;;;13.10;72.50;;;8.91;100.00;95020.81;4931451;29;20513;-57
2022/12/23 02:22:36;;;;;;;0.57;0.50;;;13.10;72.30;;;8.99;100.00;95014.16;4932634;29;20043;-55
2022/12/23 02:25:33;;;;;;;1.23;0.50;;;13.20;72.40;;;8.99;100.00;95007.00;4928564;29;20553;-55
2022/12/23 02:28:44;;;;;;;1.13;0.40;;;13.20;72.30;;;9.06;100.00;95005.91;4932383;29;20073;-57
2022/12/23 02:32:08;;;;;;;0.43;0.43;;;13.20;72.20;;;9.11;100.00;95008.56;4926585;29;20389;-56
2022/12/23 02:35:09;;;;;;;1.10;0.60;;;13.30;72.20;;;9.17;100.00;95020.78;4926232;29;20125;-55
2022/12/23 02:38:09;;;;;;;1.48;0.40;;;13.30;72.20;;;9.18;100.00;95017.84;4933669;29;20050;-55
2022/12/23 02:41:40;;;;;;;1.23;0.50;;;13.30;72.20;;;9.20;100.00;95018.38;4920651;29;20450;-57
2022/12/23 02:44:23;;;;;;;0.30;0.30;;;13.30;72.20;;;9.28;100.00;95017.03;4925526;29;20069;-57
2022/12/23 02:47:02;;;;;;;0.70;0.40;;;13.40;72.20;;;9.30;100.00;95009.56;4920193;29;20027;-57
2022/12/23 02:49:44;;;;;;;0.50;0.50;;;13.40;72.10;;;9.33;100.00;95017.00;4916282;29;20498;-57
2022/12/23 02:52:18;;;;;;;0.52;0.43;;;13.50;72.10;;;9.36;100.00;95011.16;4916297;29;20481;-56
2022/12/23 02:55:04;;;;;;;2.10;0.60;;;13.50;71.90;;;9.38;100.00;95008.25;4931757;29;20030;-57
2022/12/23 02:57:39;;;;;;;0.90;0.38;;;13.60;71.90;;;9.43;100.00;95026.81;4931664;29;20055;-55
2022/12/23 03:00:07;;;;;;;0.50;0.50;;;13.60;71.80;;;9.44;100.00;95031.88;4929850;29;20047;-57
2022/12/23 03:02:40;;;;;;;0.73;0.40;;;13.60;71.60;;;9.44;100.00;95026.56;4928473;29;20118;-57
2022/12/23 03:05:38;;;;;;;0.43;0.43;;;13.60;71.60;;;9.49;100.00;95033.72;4924475;29;20062;-57
2022/12/23 03:08:28;;;;;;;0.73;0.40;;;13.70;71.60;;;9.44;100.00;95034.53;4937821;28;20482;-56
2022/12/23 03:11:17;;;;;;;1.42;0.43;;;13.70;71.40;;;9.44;100.00;95034.53;4930287;29;20027;-54
2022/12/23 03:14:30;;;;;;;2.47;0.40;;;13.70;71.30;;;9.48;100.00;95030.25;4931069;29;20023;-56
2022/12/23 03:17:30;;;;;;;0.50;0.50;;;13.70;71.30;;;9.43;100.00;95032.94;4927841;29;20031;-57
2022/12/23 03:20:28;;;;;;;0.40;0.40;;;13.80;71.40;;;9.44;100.00;95028.44;4932065;29;20353;-56
2022/12/23 03:23:43;;;;;;;0.45;0.43;;;13.80;71.40;;;9.44;100.00;95037.19;4927157;29;20104;-57
2022/12/23 03:26:29;;;;;;;1.45;0.50;;;13.80;71.40;;;9.37;100.00;95027.88;4923275;29;20034;-55
2022/12/23 03:29:18;;;;;;;0.30;0.30;;;13.70;71.40;;;9.39;100.00;95026.56;4926218;29;20111;-55
2022/12/23 03:31:49;;;;;;;0.70;0.40;;;13.70;71.60;;;9.40;100.00;95037.97;4916212;29;20118;-57
2022/12/23 03:34:28;;;;;;;0.52;0.52;;;13.60;71.80;;;9.36;100.00;95028.97;4931768;29;20089;-54
2022/12/23 03:37:09;;;;;;;0.30;0.30;;;13.60;72.00;;;9.37;100.00;95028.72;4916067;29;20042;-56
2022/12/23 03:40:03;;;;;;;0.98;0.50;;;13.60;72.00;;;9.35;100.00;95020.19;4930791;29;20089;-56
2022/12/23 03:42:42;;;;;;;0.38;0.38;;;13.60;72.10;;;9.33;100.00;95040.94;4929962;29;20426;-57
2022/12/23 03:45:22;;;;;;;1.42;0.47;;;13.60;72.30;;;9.34;100.00;95031.91;4904256;29;20073;-54
2022/12/23 03:48:08;;;;;;;0.43;0.40;;;13.60;72.30;;;9.26;100.00;95025.25;4930043;29;20081;-57
2022/12/23 03:50:41;;;;;;;0.40;0.40;;;13.50;72.40;;;9.27;100.00;95026.88;4931326;29;20026;-56
2022/12/23 03:53:45;;;;;;;;;;;13.50;72.40;;;9.23;100.00;95019.69;4927482;29;20498;-55
2022/12/23 03:56:34;;;;;;;1.83;0.30;;;13.50;72.20;;;9.20;100.00;95021.03;4916948;29;20037;-57
2022/12/23 03:59:29;;;;;;;0.35;0.35;;;13.50;72.60;;;9.20;100.00;95020.22;4928514;29;20062;-55
2022/12/23 04:02:08;;;;;;;0.68;0.38;;;13.50;72.70;;;9.17;100.00;95026.88;4907721;29;20068;-57
2022/12/23 04:05:31;;;;;;;0.30;0.30;;;13.40;72.90;;;9.22;100.00;95026.88;4926481;29;20093;-53
2022/12/23 04:08:29;;;;;;;2.28;0.43;;;13.40;73.00;;;9.22;100.00;95020.78;4927093;29;20687;-57
2022/12/23 04:10:57;;;;;;;0.40;0.40;;;13.40;73.20;;;9.24;100.00;95029.25;4928690;29;20053;-56
2022/12/23 04:13:24;;;;;;;0.70;0.60;;;13.40;73.20;;;9.23;100.00;95020.47;4908667;29;20022;-52
2022/12/23 04:15:57;;;;;;;0.30;0.30;;;13.40;73.30;;;9.21;100.00;95021.81;4914979;29;20306;-57
2022/12/23 04:18:27;;;;;;;0.52;0.47;;;13.40;73.40;;;9.25;100.00;95018.38;4922859;29;20182;-54
2022/12/23 04:20:54;;;;;;;0.38;0.38;;;13.40;73.50;;;9.24;100.00;95016.78;4915619;29;20032;-57
2022/12/23 04:23:20;;;;;;;0.40;0.40;;;13.40;73.40;;;9.25;100.00;95014.91;4906970;29;20055;-56
2022/12/23 04:25:49;;;;;;;0.30;0.30;;;13.50;73.50;;;9.27;100.00;95016.25;4932394;29;20122;-55
2022/12/23 04:28:14;;;;;;;0.38;0.38;;;13.50;73.60;;;9.32;100.00;95009.31;4934709;29;20085;-57
2022/12/23 04:30:40;;;;;;;0.40;0.40;;;13.50;73.60;;;9.32;100.00;95012.75;4932122;29;20429;-54
2022/12/23 04:33:10;;;;;;;0.40;0.40;;;13.50;73.60;;;9.35;100.00;95014.09;4934509;29;20419;-52
2022/12/23 04:35:36;;;;;;;0.40;0.35;;;13.50;73.60;;;9.39;100.00;95015.13;4927108;29;20027;-56
2022/12/23 04:38:05;;;;;;;0.30;0.30;;;13.60;73.70;;;9.42;100.00;95015.38;4932877;29;20093;-53
2022/12/23 04:40:33;;;;;;;1.33;0.47;;;13.60;73.70;;;9.45;100.00;95014.06;4929999;29;20059;-54
2022/12/23 04:43:02;;;;;;;0.93;0.50;;;13.60;73.60;;;9.42;100.00;95004.75;4934307;29;20041;-54
2022/12/23 04:45:31;;;;;;;0.50;0.50;;;13.60;73.70;;;9.47;100.00;95022.56;4933462;29;20501;-56
2022/12/23 04:47:57;;;;;;;0.40;0.40;;;13.70;73.70;;;9.48;100.00;95016.97;4915992;29;20026;-55
2022/12/23 04:50:23;;;;;;;0.47;0.40;;;13.70;73.60;;;9.50;100.00;95022.81;4934387;29;20019;-57
2022/12/23 04:52:52;;;;;;;0.40;0.40;;;13.70;73.50;;;9.48;100.00;95024.94;4933306;29;20025;-56
2022/12/23 04:55:24;;;;;;;0.30;0.30;;;13.70;73.50;;;9.52;100.00;95025.19;4934665;29;20037;-57
2022/12/23 04:57:53;;;;;;;0.88;0.40;;;13.80;73.60;;;9.53;100.00;95029.47;4934232;29;20580;-56
2022/12/23 05:00:20;;;;;;;0.55;0.30;;;13.80;73.50;;;9.51;100.00;95039.56;4978971;23;20053;-51
2022/12/23 05:02:49;;;;;;;0.82;0.40;;;13.80;73.40;;;9.50;100.00;95036.09;4963150;28;20046;-54
2022/12/23 05:05:24;;;;;;;1.30;0.32;;;13.80;73.50;;;9.54;100.00;95040.88;4968622;28;20023;-52
2022/12/23 05:07:51;;;;;;;2.85;0.45;;;13.80;73.40;;;9.53;100.00;95047.25;4955657;28;20027;-53
2022/12/23 05:10:17;;;;;;;0.40;0.40;;;13.80;73.40;;;9.52;100.00;95041.13;4962863;28;20370;-54
2022/12/23 05:12:42;;;;;;;1.30;0.40;;;13.80;73.50;;;9.53;100.00;95037.44;4950770;28;20076;-54
2022/12/23 05:15:09;;;;;;;0.55;0.55;;;13.80;73.50;;;9.56;100.00;95044.06;4952413;28;20505;-53
2022/12/23 05:17:38;;;;;;;0.30;0.30;;;13.80;73.40;;;9.54;100.00;95032.91;4951129;28;20489;-58
2022/12/23 05:20:05;;;;;;;2.92;0.40;;;13.80;73.40;;;9.55;100.00;95029.97;4952737;28;20058;-52
2022/12/23 05:22:31;;;;;;;0.70;0.52;;;13.80;73.40;;;9.55;100.00;95024.66;4952340;28;20033;-53
2022/12/23 05:25:04;;;;;;;0.73;0.60;;;13.80;73.40;;;9.53;100.00;95025.97;4953332;28;20022;-50
2022/12/23 05:27:29;;;;;;;1.30;0.70;;;13.80;73.50;;;9.56;100.00;95017.47;4953050;28;20050;-55
2022/12/23 05:29:58;;;;;;;1.02;0.40;;;13.70;73.50;;;9.52;100.00;95021.75;4941044;28;20134;-55
2022/12/23 05:32:30;;;;;;;2.05;0.70;;;13.70;73.60;;;9.50;100.00;95012.19;4953359;28;20037;-50
2022/12/23 05:35:02;;;;;;;0.70;0.70;;;13.70;73.70;;;9.52;100.00;95013.75;4951381;28;20556;-52
2022/12/23 05:37:28;;;;;;;0.80;0.77;;;13.70;73.80;;;9.50;100.00;95016.72;4950495;28;20062;-55
2022/12/23 05:39:56;;;;;;;0.60;0.60;;;13.70;73.80;;;9.49;100.00;95023.91;4950898;28;20089;-54
2022/12/23 05:42:22;;;;;;;0.80;0.80;;;13.70;73.90;;;9.48;100.00;95035.56;4952146;28;20082;-51
2022/12/23 05:44:51;;;;;;;1.08;0.80;;;13.70;74.10;;;9.55;100.00;95032.63;4951666;28;20035;-56
2022/12/23 05:47:17;;;;;;;0.80;0.70;;;13.70;74.20;;;9.54;100.00;95032.91;4950278;28;20497;-55
2022/12/23 05:49:43;;;;;;;1.25;0.57;;;13.70;74.10;;;9.55;100.00;95039.81;4950904;28;20034;-55
2022/12/23 05:52:09;;;;;;;0.80;0.60;;;13.80;74.20;;;9.57;100.00;95029.72;4948505;28;20019;-54
2022/12/23 05:54:37;;;;;;;1.75;0.60;;;13.80;74.20;;;9.53;100.00;95033.97;4930076;29;20070;-53
2022/12/23 05:57:03;;;;;;;0.70;0.52;;;13.70;74.10;;;9.56;100.00;95020.94;4944886;28;20109;-52
2022/12/23 05:59:32;;;;;;;0.82;0.70;;;13.80;74.20;;;9.52;100.00;95030.50;4946293;28;20161;-55
2022/12/23 06:02:01;;;;;;;1.25;0.50;;;13.80;74.20;;;9.49;100.00;95033.72;4951356;28;20042;-55
2022/12/23 06:04:27;;;;;;;0.63;0.40;;;13.80;74.20;;;9.52;100.00;95027.84;4951296;28;20121;-54
2022/12/23 06:06:52;;;;;;;0.65;0.50;;;13.80;74.20;;;9.55;100.00;95034.50;4934635;28;20041;-52
2022/12/23 06:09:18;;;;;;;3.75;0.70;;;13.70;74.90;;;9.49;100.00;95025.72;4954482;28;20080;-55
2022/12/23 06:11:47;;;;;;;1.00;0.70;;;13.80;74.30;;;9.50;100.00;95027.34;4956676;28;20026;-51
2022/12/23 06:14:13;;;;;;;3.13;0.60;;;13.80;74.40;;;9.53;100.00;95028.63;4919317;29;20117;-52
2022/12/23 06:16:42;;;;;;;1.33;0.52;;;13.70;74.20;;;9.54;100.00;95035.56;4927705;28;20521;-54
2022/12/23 06:19:10;;;;;;;1.05;0.60;;;13.80;74.40;;;9.57;100.00;95040.34;4939154;28;20039;-51
2022/12/23 06:21:41;;;;;;;0.70;0.70;;;13.80;74.40;;;9.56;100.00;95038.72;4964060;28;20054;-50
2022/12/23 06:24:07;;;;;;;1.52;1.00;;;13.80;74.40;;;9.56;100.00;95052.84;4946581;28;20074;-50
2022/12/23 06:26:36;;;;;;;0.75;0.75;;;13.80;74.40;;;9.56;100.00;95046.72;4932693;28;20474;-50
2022/12/23 06:29:03;;;;;;;1.45;0.70;;;13.80;74.50;;;9.58;100.00;95052.56;4945582;28;20030;-51
2022/12/23 06:31:29;;;;;;;2.03;0.80;;;13.80;74.50;;;9.58;100.00;95060.53;4949202;28;20200;-53
2022/12/23 06:33:55;;;;;;;1.95;0.80;;;13.80;74.40;;;9.56;100.00;95063.47;4966281;28;20101;-56
2022/12/23 06:36:23;;;;;;;1.33;0.90;;;13.80;74.40;;;9.56;100.00;95060.81;4952488;28;20034;-53
2022/12/23 06:38:52;;;;;;;3.65;0.90;;;13.80;74.50;;;9.60;100.00;95045.91;4952368;28;20114;-51
2022/12/23 06:41:36;;;;;;;1.35;0.93;;;13.80;74.60;;;9.59;100.00;95035.53;4948501;28;20478;-53
2022/12/23 06:44:05;;;;;;;2.20;0.95;;;13.80;74.60;;;9.56;100.00;95047.53;4948089;28;20397;-52
2022/12/23 06:46:31;;;;;;;1.17;0.60;;;13.90;74.60;;;9.56;100.00;95057.34;4952678;28;20365;-54
2022/12/23 06:48:57;;;;;;;1.05;0.80;;;13.80;74.60;;;9.57;100.00;95053.63;4932729;28;20033;-52
2022/12/23 06:51:23;;;;;;;2.05;0.93;;;13.80;74.60;;;9.57;100.00;95051.78;4948946;28;20051;-52
2022/12/23 06:53:49;;;;;;;0.90;0.80;;;13.80;74.70;;;9.60;100.00;95045.91;4949700;28;20157;-55
2022/12/23 06:56:15;;;;;;;1.30;0.90;;;13.80;74.80;;;9.58;100.00;95041.94;4950810;28;20504;-56
2022/12/23 06:58:41;;;;;;;2.25;0.82;;;13.80;74.80;;;9.57;100.00;95053.63;4948128;28;20031;-55
2022/12/23 07:01:07;;;;;;;3.72;1.10;;;13.80;74.80;;;9.57;100.00;95049.13;4950475;28;20049;-55
2022/12/23 07:03:33;;;;;;;1.17;1.00;;;13.80;74.90;;;9.60;100.00;95055.75;4948817;28;20030;-53
2022/12/23 07:05:58;;;;;;;1.33;1.00;;;13.80;74.90;;;9.61;100.00;95055.47;4931736;28;20042;-51
2022/12/23 07:08:24;;;;;;;4.00;1.10;;;13.80;75.00;;;9.58;100.00;95055.22;4949218;28;20026;-51
2022/12/23 07:11:02;;;;;;;2.88;1.05;;;13.80;75.00;;;9.60;100.00;95061.06;4946709;28;20108;-53
2022/12/23 07:13:28;;;;;;;0.80;0.80;;;13.80;75.20;;;9.63;100.00;95068.50;4938650;28;20449;-50
2022/12/23 07:15:54;;;;;;;2.55;0.82;;;13.80;75.00;;;9.64;100.00;95064.78;4947303;28;20046;-53
2022/12/23 07:18:24;;;;;;;1.92;1.00;;;13.80;75.10;;;9.64;100.00;95068.22;4950115;28;20582;-50
2022/12/23 07:20:51;;;;;;;3.33;1.17;;;13.90;75.20;;;9.66;100.00;95060.78;4950262;28;20511;-51
2022/12/23 07:23:18;;;;;;;1.10;1.00;;;13.90;75.90;;;9.63;100.00;95066.66;4949000;28;20037;-50
2022/12/23 07:25:47;;;;;;;1.63;0.90;;;13.90;75.10;;;9.67;100.00;95058.91;4949379;28;20387;-50
2022/12/23 07:28:12;;;;;;;1.88;1.00;;;13.90;75.10;;;9.62;100.00;95058.94;4950044;28;20061;-50
2022/12/23 07:30:41;;;;;;;2.33;1.20;;;13.90;75.10;;;9.65;100.00;95067.19;4941983;28;20481;-51
2022/12/23 07:33:07;;;;;;;1.25;1.15;;;13.90;75.10;;;9.72;100.00;95059.72;4944058;28;20026;-52
2022/12/23 07:35:33;;;;;;;1.40;1.02;;;14.00;75.10;;;9.67;100.00;95059.72;4939417;28;20117;-54
2022/12/23 07:37:59;;;;;;;1.20;1.10;;;14.00;75.20;;;9.68;100.00;95057.84;4949952;28;20445;-52
2022/12/23 07:40:26;;;;;;;1.00;0.90;;;14.00;75.20;;;9.71;100.00;95055.47;4949926;28;20043;-53
2022/12/23 07:42:58;;;;;;;1.83;1.08;;;14.00;75.30;;;9.78;100.00;95059.66;4948564;29;20080;-54
2022/12/23 07:45:27;;;;;;;1.25;1.15;;;14.00;75.30;;;9.79;100.00;95066.59;4939035;28;20027;-50
2022/12/23 07:47:58;;;;;;;1.23;1.00;;;14.10;75.30;;;9.82;100.00;95061.53;4943490;28;20550;-52
2022/12/23 07:50:26;;;;;;;0.88;0.88;;;14.10;75.30;;;9.84;100.00;95069.22;4944369;28;20481;-53
2022/12/23 07:52:55;;;;;;;1.98;0.70;;;14.10;75.20;;;9.83;100.00;95075.63;4948423;29;20039;-55
2022/12/23 07:55:24;;;;;;;1.40;0.77;;;14.20;75.20;;;9.85;100.00;95076.94;4949786;28;20049;-53
2022/12/23 07:57:52;;;;;;;2.70;1.00;;;14.20;75.20;;;9.88;100.00;95089.72;4951199;28;20549;-56
2022/12/23 08:00:20;;;;;;;5.00;0.80;;;14.20;75.20;;;9.89;100.00;95085.97;4943969;28;20054;-50
2022/12/23 08:03:06;;;;;;;1.50;0.90;;;14.20;75.20;;;9.96;100.00;95093.66;4951759;28;20022;-57
2022/12/23 08:05:35;;;;;;;1.15;0.82;;;14.20;75.20;;;9.92;100.00;95105.91;4953819;28;20034;-53
2022/12/23 08:08:04;;;;;;;1.80;0.70;;;14.20;75.00;;;9.89;100.00;95101.13;4937023;28;20448;-54
2022/12/23 08:10:30;;;;;;;0.70;0.70;;;14.20;75.10;;;9.91;100.00;95107.00;4951511;28;20461;-52
2022/12/23 08:13:00;;;;;;;1.30;0.88;;;14.20;75.10;;;9.90;100.00;95108.03;4954384;28;20101;-51
2022/12/23 08:15:29;;;;;;;4.78;0.90;;;14.10;75.10;;;9.86;100.00;95091.84;4937276;28;20080;-50
2022/12/23 08:17:55;;;;;;;1.50;0.90;;;14.10;75.10;;;9.87;100.00;95084.63;4953697;28;20058;-52
2022/12/23 08:20:21;;;;;;;1.83;1.25;;;14.10;75.10;;;9.85;100.00;95086.78;4953561;28;20027;-50
2022/12/23 08:22:49;;;;;;;1.35;1.25;;;14.10;75.20;;;9.87;100.00;95085.47;4952276;28;20425;-51
2022/12/23 08:25:18;;;;;;;2.53;1.33;;;14.10;75.20;;;9.86;100.00;95088.38;4952952;28;20027;-56
2022/12/23 08:27:44;;;;;;;1.85;1.10;;;14.10;75.20;;;9.86;100.00;95075.06;4952996;28;20042;-50
2022/12/23 08:30:16;;;;;;;1.02;0.88;;;14.10;75.20;;;9.86;100.00;95091.84;4947940;28;20438;-50
2022/12/23 08:32:42;;;;;;;4.28;1.10;;;14.10;75.30;;;9.91;100.00;95093.69;4954088;28;20061;-50
2022/12/23 08:35:08;;;;;;;4.00;1.20;;;14.00;75.20;;;9.93;100.00;95091.53;4948866;28;20062;-50
2022/12/23 08:37:34;;;;;;;4.88;1.30;;;14.10;75.20;;;9.92;100.00;95089.97;4944873;28;20026;-51
2022/12/23 08:40:00;;;;;;;2.38;1.30;;;14.10;75.20;;;9.92;100.00;95100.59;4951776;28;20045;-53
2022/12/23 08:42:32;;;;;;;1.90;1.30;;;14.10;75.30;;;9.90;100.00;95103.53;4951918;28;20432;-55
2022/12/23 08:45:04;;;;;;;2.08;1.58;;;14.10;75.30;;;9.89;100.00;95101.94;4952265;28;20069;-54
2022/12/23 08:47:35;;;;;;;1.75;1.40;;;14.10;75.30;;;9.91;100.00;95097.16;4949247;28;20465;-52
2022/12/23 08:50:02;;;;;;;1.85;1.50;;;14.20;75.30;;;9.90;100.00;95106.19;4945281;28;20034;-53
2022/12/23 08:52:28;;;;;;;3.70;1.50;;;14.20;75.30;;;9.95;100.00;95100.84;4950102;28;20045;-53
2022/12/23 08:54:57;;;;;;;3.25;1.65;;;14.20;75.20;;;9.94;100.00;95098.47;4951955;28;20478;-53
2022/12/23 08:57:28;;;;;;;4.28;1.83;;;14.20;76.00;;;9.95;100.00;95098.19;4954148;28;20027;-52
2022/12/23 08:59:54;;;;;;;2.85;1.33;;;14.30;75.30;;;9.94;100.00;95101.13;4945676;28;20709;-55
2022/12/23 09:02:22;;;;;;;5.10;2.10;;;14.30;75.20;;;9.93;100.00;95104.84;4948159;28;20042;-53
2022/12/23 09:04:54;;;;;;;6.78;2.33;;;14.20;75.10;;;9.95;100.00;95111.50;4951191;28;20034;-56
2022/12/23 09:07:20;;;;;;;4.45;1.80;;;14.30;75.10;;;9.96;100.00;95107.78;4944790;28;20429;-52
2022/12/23 09:09:46;;;;;;;2.63;1.55;;;14.30;75.20;;;9.98;100.00;95115.47;4954565;28;20019;-53
2022/12/23 09:12:12;;;;;;;4.20;1.63;;;14.30;75.10;;;9.95;100.00;95108.03;4951683;28;20031;-50
2022/12/23 09:14:37;;;;;;;2.65;1.30;;;14.30;75.10;;;9.97;100.00;95108.56;4936511;28;20464;-52
2022/12/23 09:17:09;;;;;;;3.00;1.10;;;14.30;75.10;;;9.98;100.00;95115.47;4953107;28;20110;-50
2022/12/23 09:19:40;;;;;;;4.13;1.40;;;14.40;75.10;;;10.04;100.00;95121.59;4936019;28;20058;-49
2022/12/23 09:22:12;;;;;;;3.53;1.30;;;14.40;75.10;;;10.09;100.00;95118.88;4953719;28;20093;-50
2022/12/23 09:24:38;;;;;;;3.10;1.00;;;14.40;75.10;;;10.12;100.00;95121.00;4952219;28;20033;-50
2022/12/23 09:27:04;;;;;;;3.47;1.38;;;14.50;75.10;;;10.15;100.00;95117.78;4953172;28;20018;-50
2022/12/23 09:29:30;;;;;;;2.75;1.02;;;14.50;75.00;;;10.20;100.00;95112.47;4945478;28;20027;-53
2022/12/23 09:31:55;;;;;;;2.80;1.10;;;14.50;74.90;;;10.23;100.00;95108.47;4952652;28;20080;-56
2022/12/23 09:34:25;;;;;;;2.15;1.10;;;14.70;74.90;;;10.25;100.00;95111.63;4952684;28;20035;-50
2022/12/23 09:36:51;;;;;;;2.35;1.23;;;14.70;74.90;;;10.28;100.00;95109.28;4952173;28;20067;-54
2022/12/23 09:39:17;;;;;;;1.20;1.10;;;14.80;74.70;;;10.32;100.00;95114.84;4948314;28;20030;-51
2022/12/23 09:42:06;;;;;;;2.22;1.30;;;14.80;74.60;;;10.34;100.00;95116.16;4946589;28;20053;-54
2022/12/23 09:44:52;;;;;;;3.00;1.27;;;14.90;74.60;;;10.35;100.00;95108.97;4953000;28;20102;-51
2022/12/23 09:47:32;;;;;;;2.55;0.90;;;14.90;74.50;;;10.41;100.00;95097.22;4951824;28;20113;-51
2022/12/23 09:50:27;;;;;;;1.85;1.00;;;15.00;74.50;;;10.48;100.00;95095.03;4966044;28;20031;-50
2022/12/23 09:53:19;;;;;;;1.52;1.00;;;15.00;74.40;;;10.53;100.00;95099.53;4951780;28;20104;-50
2022/12/23 09:56:20;;;;;;;2.00;1.08;;;15.00;74.40;;;10.56;100.00;95094.47;4951753;28;20540;-54
2022/12/23 09:59:28;;;;;;;2.08;0.88;;;15.10;74.30;;;10.60;100.00;95095.50;4950512;28;20109;-56
2022/12/23 10:02:27;;;;;;;0.90;0.70;;;15.00;74.30;;;10.62;100.00;95087.22;4949808;28;20153;-51
2022/12/23 10:05:29;;;;;;;2.17;1.25;;;15.00;74.30;;;10.61;100.00;95083.78;4952035;28;20031;-54
2022/12/23 10:08:16;;;;;;;6.28;0.90;;;15.00;74.40;;;10.57;100.00;95096.06;4951724;28;20961;-52
2022/12/23 10:11:08;;;;;;;1.77;1.10;;;15.00;74.20;;;10.57;100.00;95093.41;4949427;28;20037;-49
2022/12/23 10:14:10;;;;;;;2.92;1.23;;;15.00;74.20;;;10.52;100.00;95089.97;4945917;28;20092;-52
2022/12/23 10:16:51;;;;;;;4.68;1.80;;;15.00;74.20;;;10.47;100.00;95092.66;4947978;28;20034;-55
2022/12/23 10:19:44;;;;;;;5.13;1.33;;;14.90;74.00;;;10.44;100.00;95093.22;4945364;28;20408;-49
2022/12/23 10:22:40;;;;;;;3.38;1.60;;;14.90;74.00;;;10.39;100.00;95089.50;4945951;28;20434;-54
2022/12/23 10:25:37;;;;;;;3.85;1.65;;;14.80;73.90;;;10.27;100.00;95086.38;4945931;28;20051;-54
2022/12/23 10:28:04;;;;;;;5.82;1.80;;;14.80;73.80;;;10.24;100.00;95078.09;4946646;28;20061;-53
2022/12/23 10:30:41;;;;;;;1.98;1.50;;;14.80;73.70;;;10.16;100.00;95071.50;4945163;28;20027;-53
2022/12/23 10:33:59;;;;;;;3.22;1.60;;;14.70;73.70;;;10.14;100.00;95068.31;4951005;28;20031;-51
2022/12/23 10:36:45;;;;;;;3.78;1.20;;;14.70;73.70;;;10.05;100.00;95061.97;4944012;28;20610;-52
2022/12/23 10:39:35;;;;;;;4.35;1.45;;;14.70;73.60;;;9.94;100.00;95062.00;4921381;28;20034;-51
2022/12/23 10:42:50;;;;;;;2.15;1.40;;;14.60;73.60;;;9.89;100.00;95059.38;4947345;28;20018;-53
2022/12/23 10:45:39;;;;;;;4.25;1.40;;;14.60;73.70;;;9.83;100.00;95051.69;4931424;28;20100;-50
2022/12/23 10:48:48;;;;;;;3.90;1.80;;;14.50;73.80;;;9.80;100.00;95058.34;4945826;28;20034;-52
2022/12/23 10:52:19;;;;;;;2.03;1.58;;;14.40;73.80;;;9.70;100.00;95048.53;4939335;28;20038;-55
2022/12/23 10:54:48;;;;;;;3.13;1.63;;;14.40;73.80;;;9.66;100.00;95047.50;4886608;29;20028;-50
2022/12/23 10:57:18;;;;;;;3.90;1.60;;;14.30;73.70;;;9.60;100.00;95048.56;4891256;29;20026;-51
2022/12/23 10:59:46;;;;;;;5.18;2.05;;;14.30;73.80;;;9.61;100.00;95036.06;4894132;29;20463;-49
2022/12/23 11:02:13;;;;;;;5.85;1.70;;;14.30;73.90;;;9.55;100.00;95037.16;4947058;23;20055;-56
2022/12/23 11:04:47;;;;;;;4.32;1.48;;;14.20;73.80;;;9.52;100.00;95041.13;4928247;29;20046;-51
2022/12/23 11:07:29;;;;;;;6.40;1.70;;;14.20;73.90;;;9.52;100.00;95032.38;4931230;29;20029;-56
2022/12/23 11:10:12;;;;;;;1.85;1.35;;;14.20;74.00;;;9.52;100.00;95030.50;4930171;29;20027;-53
2022/12/23 11:12:52;;;;;;;2.55;1.40;;;14.20;74.10;;;9.55;100.00;95021.19;4927279;29;20450;-53
2022/12/23 11:15:38;;;;;;;4.00;1.40;;;14.20;74.00;;;9.52;100.00;95019.09;4920708;29;20045;-57
2022/12/23 11:18:13;;;;;;;1.83;1.15;;;14.20;74.10;;;9.53;100.00;95016.16;4927806;29;20027;-56
2022/12/23 11:20:45;;;;;;;3.50;1.10;;;14.20;74.10;;;9.56;100.00;95015.63;4929910;29;20042;-50